Time;durP1;ratioP1;P1;durP2;ratioP2;P2;SDS_P1;SDS_P2;PMS_P1;PMS_P2;Temp;Humidity;BMP_temperature;BMP_pressure;BME280_temperature;BME280_humidity;BME280_pressure;Samples;Min_cycle;Max_cycle;Signal;HPM_P1;HPM_P2
2023/12/30 00:01:26;;;;;;;84.00;79.97;;;;;;;10.97;66.96;100881.63;5015366;28;20430;-70
2023/12/30 00:03:51;;;;;;;82.97;79.15;;;;;;;10.97;67.27;100886.19;5019823;28;20087;-69
2023/12/30 00:06:18;;;;;;;81.43;77.78;;;;;;;10.97;67.20;100889.72;5012276;28;20482;-69
2023/12/30 00:08:44;;;;;;;82.05;78.43;;;;;;;10.98;67.24;100888.66;5039406;28;20463;-69
2023/12/30 00:11:09;;;;;;;83.50;79.70;;;;;;;10.98;67.31;100891.34;5029908;28;20125;-69
2023/12/30 00:13:37;;;;;;;84.80;81.10;;;;;;;10.98;67.27;100885.94;5027935;28;20497;-69
2023/12/30 00:16:03;;;;;;;81.22;77.35;;;;;;;10.98;67.36;100883.25;5021878;28;20043;-69
2023/12/30 00:18:28;;;;;;;84.75;80.85;;;;;;;10.98;67.38;100894.06;5029939;28;20029;-69
2023/12/30 00:20:54;;;;;;;81.75;78.10;;;;;;;10.99;67.36;100900.31;5019407;28;20049;-71
2023/12/30 00:23:20;;;;;;;81.50;77.85;;;;;;;11.00;67.36;100904.63;5026229;28;20125;-69
2023/12/30 00:25:46;;;;;;;82.05;78.47;;;;;;;11.00;67.24;100908.16;5012401;28;20030;-69
2023/12/30 00:28:11;;;;;;;78.90;75.43;;;;;;;11.02;67.30;100902.50;5027362;28;20034;-70
2023/12/30 00:30:37;;;;;;;84.35;80.13;;;;;;;11.02;67.38;100905.22;5010183;28;20117;-69
2023/12/30 00:33:06;;;;;;;84.80;80.97;;;;;;;11.03;67.44;100912.25;5031213;28;20427;-70
2023/12/30 00:35:31;;;;;;;84.68;80.68;;;;;;;11.04;67.59;100912.03;5033403;28;20041;-69
2023/12/30 00:37:56;;;;;;;80.85;77.25;;;;;;;11.03;67.47;100918.47;5013554;28;20041;-70
2023/12/30 00:40:22;;;;;;;82.60;78.70;;;;;;;11.03;67.38;100923.06;5015191;28;20038;-70
2023/12/30 00:42:47;;;;;;;80.88;77.18;;;;;;;11.02;67.15;100916.03;5012060;28;20038;-69
2023/12/30 00:45:13;;;;;;;83.38;79.30;;;;;;;11.01;67.18;100925.19;5012092;28;20030;-70
2023/12/30 00:47:38;;;;;;;81.07;77.28;;;;;;;10.98;67.15;100922.97;5026920;28;20383;-69
2023/12/30 00:50:04;;;;;;;81.22;77.13;;;;;;;10.98;67.07;100926.50;5024543;28;20117;-70
2023/12/30 00:52:29;;;;;;;83.18;79.40;;;;;;;10.98;67.38;100931.91;5026577;28;20064;-72
2023/12/30 00:54:55;;;;;;;83.82;80.13;;;;;;;10.97;67.23;100935.66;5030034;28;20124;-69
2023/12/30 00:57:20;;;;;;;81.60;77.70;;;;;;;10.96;67.31;100946.72;5031592;28;20038;-71
2023/12/30 00:59:46;;;;;;;80.97;77.43;;;;;;;10.95;66.97;100940.50;5031408;28;20117;-70
2023/12/30 01:02:11;;;;;;;77.57;74.07;;;;;;;10.94;67.24;100938.03;5023527;28;20437;-73
2023/12/30 01:04:36;;;;;;;77.82;74.22;;;;;;;10.94;67.46;100941.56;5028836;28;20092;-71
2023/12/30 01:07:02;;;;;;;83.15;79.15;;;;;;;10.94;67.07;100941.56;5031075;28;20049;-71
2023/12/30 01:09:28;;;;;;;91.53;87.10;;;;;;;10.93;67.03;100942.59;5012788;28;20065;-70
2023/12/30 01:11:53;;;;;;;85.75;81.97;;;;;;;10.93;67.32;100942.59;5029772;28;20433;-69
2023/12/30 01:14:18;;;;;;;85.40;81.30;;;;;;;10.92;67.22;100946.38;5016522;28;20034;-69
2023/12/30 01:16:44;;;;;;;83.97;80.28;;;;;;;10.92;67.35;100959.88;5022168;28;20088;-71
2023/12/30 01:19:09;;;;;;;81.72;78.10;;;;;;;10.92;67.50;100954.50;5029886;28;20034;-71
2023/12/30 01:21:35;;;;;;;86.68;82.55;;;;;;;10.92;67.53;100959.06;5028483;28;20493;-69
2023/12/30 01:24:00;;;;;;;79.90;76.40;;;;;;;10.91;67.29;100960.97;5029590;28;20065;-69
2023/12/30 01:26:25;;;;;;;82.80;79.07;;;;;;;10.90;66.82;100966.59;5026897;28;20084;-71
2023/12/30 01:28:51;;;;;;;84.10;80.25;;;;;;;10.88;67.19;100968.72;5024160;28;20545;-70
2023/12/30 01:31:17;;;;;;;85.43;81.50;;;;;;;10.86;67.21;100968.13;5035919;28;20052;-70
2023/12/30 01:33:42;;;;;;;80.95;77.25;;;;;;;10.83;67.29;100964.88;5011216;28;20092;-69
2023/12/30 01:36:08;;;;;;;81.88;77.95;;;;;;;10.84;67.22;100976.50;5023278;28;20385;-70
2023/12/30 01:38:34;;;;;;;87.35;83.40;;;;;;;10.86;67.04;100977.06;5020495;28;20424;-71
2023/12/30 01:40:59;;;;;;;82.15;78.45;;;;;;;10.88;67.33;100974.13;5017648;28;20030;-70
2023/12/30 01:43:27;;;;;;;79.55;75.75;;;;;;;10.89;67.50;100983.88;5034283;28;20063;-72
2023/12/30 01:45:55;;;;;;;80.80;77.20;;;;;;;10.89;67.30;100982.00;5037687;28;20033;-69
2023/12/30 01:48:22;;;;;;;81.43;77.82;;;;;;;10.89;67.41;100984.69;5024970;28;20064;-71
2023/12/30 01:50:49;;;;;;;89.05;84.50;;;;;;;10.88;67.22;100996.56;5033399;28;20121;-70
2023/12/30 01:53:17;;;;;;;83.00;79.25;;;;;;;10.87;67.35;100986.81;5027765;28;20452;-70
2023/12/30 01:55:43;;;;;;;87.13;82.75;;;;;;;10.87;67.46;100988.69;5022821;28;20504;-70
2023/12/30 01:58:09;;;;;;;88.65;84.72;;;;;;;10.87;67.43;100996.81;5032749;28;20060;-70
2023/12/30 02:00:35;;;;;;;83.28;79.32;;;;;;;10.87;66.91;100999.50;5019421;28;20034;-70
2023/12/30 02:03:01;;;;;;;82.50;78.70;;;;;;;10.85;67.20;100999.75;5068295;28;20091;-70
2023/12/30 02:05:27;;;;;;;82.50;78.45;;;;;;;10.87;67.44;101007.63;5016115;28;20057;-71
2023/12/30 02:07:53;;;;;;;79.10;75.55;;;;;;;10.86;67.11;100998.69;5013046;28;20081;-69
2023/12/30 02:10:18;;;;;;;80.05;76.53;;;;;;;10.83;67.13;100999.16;5035752;28;20072;-69
2023/12/30 02:12:44;;;;;;;81.60;77.75;;;;;;;10.83;67.34;101001.84;5026252;28;20394;-69
2023/12/30 02:15:13;;;;;;;84.85;80.85;;;;;;;10.80;67.40;101011.25;5017244;28;20462;-69
2023/12/30 02:17:38;;;;;;;82.30;78.07;;;;;;;10.80;67.09;101005.84;5030777;28;20054;-69
2023/12/30 02:20:05;;;;;;;78.00;73.93;;;;;;;10.78;67.35;101007.97;5022366;28;20463;-69
2023/12/30 02:22:30;;;;;;;84.18;80.13;;;;;;;10.79;67.65;101019.63;5032271;28;20045;-70
2023/12/30 02:24:59;;;;;;;83.22;79.22;;;;;;;10.78;67.26;101034.97;5037859;28;20112;-69
2023/12/30 02:27:28;;;;;;;81.25;77.35;;;;;;;10.78;67.36;101034.97;5031653;28;20486;-70
2023/12/30 02:29:53;;;;;;;83.05;79.43;;;;;;;10.77;67.46;101027.13;5028487;28;20528;-69
2023/12/30 02:32:18;;;;;;;77.70;73.50;;;;;;;10.77;67.24;101027.94;5021121;28;20045;-69
2023/12/30 02:34:44;;;;;;;80.78;77.03;;;;;;;10.77;67.24;101030.66;5016357;28;20037;-69
2023/12/30 02:37:10;;;;;;;75.65;72.13;;;;;;;10.76;67.27;101028.19;5037283;28;20125;-69
2023/12/30 02:39:36;;;;;;;82.95;79.05;;;;;;;10.75;67.69;101019.25;5029501;28;20037;-70
2023/12/30 02:42:01;;;;;;;79.85;76.25;;;;;;;10.75;67.46;101023.84;5031557;28;20034;-69
2023/12/30 02:44:26;;;;;;;84.35;80.55;;;;;;;10.75;67.61;101031.94;5034621;28;20110;-70
2023/12/30 02:46:52;;;;;;;81.22;76.90;;;;;;;10.75;67.55;101027.34;5024587;28;20494;-69
2023/12/30 02:49:19;;;;;;;79.57;75.60;;;;;;;10.75;67.46;101024.66;5027927;28;20025;-69
2023/12/30 02:51:44;;;;;;;78.10;74.60;;;;;;;10.75;67.50;101032.75;5020421;28;20406;-70
2023/12/30 02:54:10;;;;;;;77.82;74.40;;;;;;;10.75;67.72;101030.06;5030659;28;20033;-69
2023/12/30 02:56:35;;;;;;;75.82;72.43;;;;;;;10.76;67.68;101036.28;5018404;28;20044;-69
2023/12/30 02:59:01;;;;;;;78.53;74.82;;;;;;;10.75;67.55;101037.34;5012426;28;20029;-72
2023/12/30 03:01:31;;;;;;;83.47;79.65;;;;;;;10.75;67.60;101043.56;5030503;28;20081;-69
2023/12/30 03:04:00;;;;;;;81.80;78.20;;;;;;;10.75;67.62;101048.97;5037109;28;20038;-70
2023/12/30 03:06:25;;;;;;;;;;;;;;;10.75;67.55;101050.84;5022435;28;20063;-71
2023/12/30 03:08:52;;;;;;;75.97;72.47;;;;;;;10.73;67.46;101056.50;5036984;28;20366;-69
2023/12/30 03:11:18;;;;;;;72.47;69.03;;;;;;;10.72;67.56;101062.97;5030708;28;20041;-69
2023/12/30 03:13:44;;;;;;;86.13;81.22;;;;;;;10.73;67.49;101050.28;5046965;28;20040;-69
2023/12/30 03:16:16;;;;;;;83.18;78.93;;;;;;;10.73;67.67;101059.19;5022461;28;20098;-68
2023/12/30 03:18:43;;;;;;;80.10;76.55;;;;;;;10.73;67.51;101058.38;5034060;28;20052;-69
2023/12/30 03:21:10;;;;;;;79.13;75.63;;;;;;;10.70;67.84;101048.84;5021253;28;20377;-70
2023/12/30 03:23:37;;;;;;;76.10;72.40;;;;;;;10.70;67.53;101045.34;5030580;28;20036;-71
2023/12/30 03:26:04;;;;;;;83.43;79.63;;;;;;;10.69;67.57;101041.00;5015719;28;20033;-71
2023/12/30 03:28:29;;;;;;;82.88;79.28;;;;;;;10.70;67.46;101042.66;5018233;28;20050;-70
2023/12/30 03:30:55;;;;;;;77.63;73.97;;;;;;;10.70;67.68;101053.44;5042288;28;20120;-70
2023/12/30 03:33:20;;;;;;;74.78;71.47;;;;;;;10.69;67.78;101046.41;5030242;28;20039;-70
2023/12/30 03:35:46;;;;;;;81.10;76.85;;;;;;;10.68;67.68;101050.97;5032318;28;20037;-69
2023/12/30 03:38:11;;;;;;;81.25;77.68;;;;;;;10.67;67.62;101045.81;5013102;28;20052;-69
2023/12/30 03:40:37;;;;;;;83.28;79.40;;;;;;;10.66;67.64;101044.16;5026611;28;20041;-70
2023/12/30 03:43:03;;;;;;;79.95;76.05;;;;;;;10.65;67.57;101046.03;5036876;28;20040;-70
2023/12/30 03:45:29;;;;;;;78.47;75.03;;;;;;;10.66;67.69;101049.56;5031153;28;20079;-69
2023/12/30 03:47:54;;;;;;;81.85;77.95;;;;;;;10.65;67.79;101045.22;5024876;28;20095;-70
2023/12/30 03:50:20;;;;;;;81.85;78.10;;;;;;;10.64;67.69;101057.91;5016352;28;20250;-70
2023/12/30 03:52:46;;;;;;;79.68;75.97;;;;;;;10.60;67.38;101052.16;5033783;28;20040;-69
2023/12/30 03:55:11;;;;;;;76.60;73.10;;;;;;;10.59;67.68;101050.50;5027887;28;20435;-70
2023/12/30 03:57:37;;;;;;;83.10;78.80;;;;;;;10.59;67.51;101049.69;5024875;28;20530;-69
2023/12/30 04:00:03;;;;;;;77.78;73.68;;;;;;;10.58;67.52;101040.78;5035558;28;20049;-69
2023/12/30 04:02:29;;;;;;;78.95;75.38;;;;;;;10.56;67.15;101056.41;5030699;28;20044;-69
2023/12/30 04:04:54;;;;;;;81.03;77.03;;;;;;;10.55;67.82;101046.63;5028393;28;20087;-69
2023/12/30 04:07:19;;;;;;;77.40;73.70;;;;;;;10.53;67.58;101050.63;5033451;28;20068;-68
2023/12/30 04:09:45;;;;;;;82.90;77.55;;;;;;;10.53;67.50;101040.66;5013802;28;20061;-69
2023/12/30 04:12:10;;;;;;;79.82;76.35;;;;;;;10.51;67.63;101048.19;5025690;28;20044;-69
2023/12/30 04:14:36;;;;;;;74.47;71.10;;;;;;;10.51;68.11;101045.47;5028200;28;20041;-70
2023/12/30 04:17:01;;;;;;;74.18;70.88;;;;;;;10.52;67.60;101046.28;5029360;28;21351;-69
2023/12/30 04:19:27;;;;;;;76.70;73.10;;;;;;;10.53;67.83;101046.06;5035763;28;20069;-69
2023/12/30 04:21:52;;;;;;;81.82;78.13;;;;;;;10.54;67.66;101057.69;5023824;28;20463;-69
2023/12/30 04:24:18;;;;;;;80.78;76.97;;;;;;;10.55;67.67;101053.91;5016489;28;20026;-69
2023/12/30 04:26:44;;;;;;;78.15;74.68;;;;;;;10.55;67.64;101053.91;5014764;28;20034;-69
2023/12/30 04:29:10;;;;;;;79.35;75.75;;;;;;;10.54;67.65;101052.28;5036964;28;20080;-69
2023/12/30 04:31:36;;;;;;;78.78;75.32;;;;;;;10.55;67.79;101060.13;5027928;28;20092;-71
2023/12/30 04:34:01;;;;;;;80.30;75.82;;;;;;;10.55;67.61;101048.50;5027126;28;20037;-70
2023/12/30 04:36:26;;;;;;;78.60;74.95;;;;;;;10.55;67.53;101052.03;5029757;28;20381;-69
2023/12/30 04:38:52;;;;;;;78.82;75.22;;;;;;;10.57;67.48;101054.50;5012327;28;20038;-70
2023/12/30 04:41:17;;;;;;;79.55;75.95;;;;;;;10.55;67.74;101048.50;5028383;28;20036;-70
2023/12/30 04:43:42;;;;;;;77.82;74.13;;;;;;;10.54;67.36;101055.81;5031800;28;20426;-70
2023/12/30 04:46:10;;;;;;;76.53;73.15;;;;;;;10.55;67.53;101056.63;5024554;28;20034;-70
2023/12/30 04:48:35;;;;;;;80.57;76.13;;;;;;;10.54;67.74;101057.69;5013621;28;20038;-70
2023/12/30 04:51:01;;;;;;;78.30;74.70;;;;;;;10.54;67.44;101055.00;5026544;28;20120;-70
2023/12/30 04:53:26;;;;;;;80.15;76.18;;;;;;;10.53;67.76;101066.81;5022598;28;20038;-69
2023/12/30 04:55:51;;;;;;;80.35;76.20;;;;;;;10.52;67.63;101063.31;5015491;28;20041;-69
2023/12/30 04:58:17;;;;;;;76.03;72.65;;;;;;;10.52;67.67;101071.41;5018868;28;20045;-70
2023/12/30 05:00:43;;;;;;;78.43;74.93;;;;;;;10.53;67.98;101080.34;5020577;28;20092;-69
2023/12/30 05:03:08;;;;;;;77.43;74.03;;;;;;;10.52;67.69;101076.81;5029034;28;20034;-70
2023/12/30 05:05:33;;;;;;;80.30;76.60;;;;;;;10.52;67.69;101079.53;5030974;28;20117;-71
2023/12/30 05:07:59;;;;;;;77.65;74.15;;;;;;;10.52;67.71;101093.03;5030500;28;20128;-69
2023/12/30 05:10:24;;;;;;;77.05;73.55;;;;;;;10.50;67.49;101084.31;5029276;28;20030;-69
2023/12/30 05:12:50;;;;;;;78.45;74.68;;;;;;;10.50;67.88;101091.63;5031631;28;20060;-69
2023/12/30 05:15:15;;;;;;;78.65;74.75;;;;;;;10.49;67.39;101084.56;5014149;28;20344;-71
2023/12/30 05:17:40;;;;;;;75.85;72.47;;;;;;;10.49;67.56;101098.09;5025831;28;20436;-69
2023/12/30 05:20:08;;;;;;;78.07;73.85;;;;;;;10.48;67.46;101080.22;5030221;28;20037;-69
2023/12/30 05:22:36;;;;;;;78.60;75.18;;;;;;;10.47;67.58;101095.59;5024404;28;20080;-70
2023/12/30 05:25:02;;;;;;;81.72;77.38;;;;;;;10.47;67.78;101100.19;5030515;28;20032;-69
2023/12/30 05:27:27;;;;;;;76.28;72.68;;;;;;;10.47;67.69;101092.09;5031322;28;20443;-70
2023/12/30 05:29:52;;;;;;;78.18;74.57;;;;;;;10.46;67.43;101098.53;5021529;28;20446;-69
2023/12/30 05:32:18;;;;;;;75.85;72.32;;;;;;;10.45;67.64;101089.59;5019497;28;20033;-69
2023/12/30 05:34:44;;;;;;;76.90;73.30;;;;;;;10.45;67.80;101096.88;5015540;28;20446;-69
2023/12/30 05:37:10;;;;;;;77.13;73.70;;;;;;;10.45;67.64;101099.59;5028996;28;20041;-69
2023/12/30 05:39:36;;;;;;;75.05;71.72;;;;;;;10.44;67.83;101101.47;5031044;28;20456;-69
2023/12/30 05:42:02;;;;;;;80.70;76.97;;;;;;;10.44;67.60;101100.66;5032846;28;20049;-69
2023/12/30 05:44:27;;;;;;;77.72;74.13;;;;;;;10.43;67.58;101110.63;5033162;28;20092;-69
2023/12/30 05:46:53;;;;;;;78.70;74.72;;;;;;;10.42;67.50;101110.88;5043758;28;20064;-69
2023/12/30 05:49:18;;;;;;;74.90;71.60;;;;;;;10.42;67.50;101105.47;5035166;28;20037;-68
2023/12/30 05:51:44;;;;;;;76.43;73.03;;;;;;;10.42;67.67;101108.16;5043673;28;20044;-69
2023/12/30 05:54:10;;;;;;;75.75;72.35;;;;;;;10.40;67.61;101111.91;5019707;28;20037;-69
2023/12/30 05:56:35;;;;;;;75.85;72.43;;;;;;;10.40;67.26;101116.50;5034143;28;20061;-68
2023/12/30 05:59:01;;;;;;;77.00;72.97;;;;;;;10.38;67.28;101121.28;5014207;28;20045;-68
2023/12/30 06:01:27;;;;;;;78.88;75.18;;;;;;;10.39;67.78;101120.25;5028173;28;20486;-70
2023/12/30 06:03:52;;;;;;;77.05;73.63;;;;;;;10.38;67.56;101114.03;5017857;28;20046;-69
2023/12/30 06:06:18;;;;;;;79.45;75.78;;;;;;;10.36;67.46;101121.53;5040709;28;20064;-69
2023/12/30 06:08:43;;;;;;;75.13;71.80;;;;;;;10.35;67.32;101117.19;5032023;28;20069;-71
2023/12/30 06:11:09;;;;;;;76.95;73.00;;;;;;;10.35;67.58;101113.66;5024419;28;20034;-70
2023/12/30 06:13:34;;;;;;;74.93;71.57;;;;;;;10.33;67.66;101119.31;5029942;28;20092;-70
2023/12/30 06:16:00;;;;;;;74.28;70.88;;;;;;;10.32;67.50;101122.22;5028147;28;20041;-71
2023/12/30 06:18:30;;;;;;;72.40;69.10;;;;;;;10.31;67.48;101117.91;5034440;28;20068;-69
2023/12/30 06:20:56;;;;;;;75.85;71.70;;;;;;;10.31;67.61;101123.31;5037324;28;20466;-70
2023/12/30 06:23:21;;;;;;;75.32;71.82;;;;;;;10.31;67.48;101131.41;5023230;28;20061;-71
2023/12/30 06:25:47;;;;;;;77.47;73.55;;;;;;;10.29;67.61;101136.19;5016845;28;20200;-70
2023/12/30 06:28:12;;;;;;;83.60;79.20;;;;;;;10.29;67.68;101133.50;5028538;28;20041;-70
2023/12/30 06:30:37;;;;;;;74.97;71.63;;;;;;;10.28;67.66;101135.38;5031275;28;20030;-72
2023/12/30 06:33:06;;;;;;;78.55;74.88;;;;;;;10.28;67.50;101140.78;5030894;28;20030;-69
2023/12/30 06:35:34;;;;;;;76.90;73.05;;;;;;;10.29;67.37;101136.19;5031823;28;20437;-69
2023/12/30 06:38:00;;;;;;;76.75;72.97;;;;;;;10.27;67.57;101136.38;5031913;28;20091;-69
2023/12/30 06:40:26;;;;;;;76.82;72.95;;;;;;;10.27;67.51;101141.78;5034842;28;20040;-70
2023/12/30 06:42:51;;;;;;;78.30;74.55;;;;;;;10.26;67.90;101132.06;5022168;28;20470;-70
2023/12/30 06:45:16;;;;;;;78.80;73.97;;;;;;;10.26;67.65;101131.25;5031730;28;20038;-69
2023/12/30 06:47:42;;;;;;;73.88;70.60;;;;;;;10.25;67.28;101138.50;5023529;28;20053;-69
2023/12/30 06:50:07;;;;;;;76.15;72.65;;;;;;;10.23;67.60;101137.94;5016795;28;20037;-71
2023/12/30 06:52:33;;;;;;;76.25;72.75;;;;;;;10.23;67.32;101129.81;5016344;28;20033;-69
2023/12/30 06:54:59;;;;;;;73.20;69.75;;;;;;;10.23;67.71;101127.13;5033277;28;20030;-69
2023/12/30 06:57:25;;;;;;;71.03;67.57;;;;;;;10.23;67.42;101140.63;5036145;28;20025;-70
2023/12/30 06:59:51;;;;;;;74.70;71.40;;;;;;;10.23;67.35;101139.78;5044052;28;20025;-70
2023/12/30 07:02:16;;;;;;;75.22;71.78;;;;;;;10.22;67.51;101136.25;5028422;28;20029;-69
2023/12/30 07:04:42;;;;;;;73.20;69.88;;;;;;;10.21;67.37;101137.31;5032953;28;20048;-69
2023/12/30 07:07:07;;;;;;;75.82;72.15;;;;;;;10.19;67.58;101136.72;5036811;28;20064;-69
2023/12/30 07:09:32;;;;;;;72.82;69.57;;;;;;;10.17;67.61;101138.84;5028340;28;20490;-69
2023/12/30 07:11:58;;;;;;;76.85;73.15;;;;;;;10.17;67.71;101155.03;5013841;28;20042;-69
2023/12/30 07:14:23;;;;;;;74.32;70.78;;;;;;;10.16;67.76;101154.22;5013768;28;20386;-69
2023/12/30 07:16:49;;;;;;;77.15;73.32;;;;;;;10.16;67.66;101150.69;5030465;28;20060;-69
2023/12/30 07:19:15;;;;;;;77.50;73.63;;;;;;;10.16;67.82;101156.09;5041638;28;20036;-69
2023/12/30 07:21:40;;;;;;;77.85;74.45;;;;;;;10.14;67.42;101150.91;5028304;28;20129;-71
2023/12/30 07:24:06;;;;;;;75.80;72.22;;;;;;;10.12;67.34;101153.00;5025316;28;20053;-69
2023/12/30 07:26:32;;;;;;;71.40;68.13;;;;;;;10.11;67.48;101142.47;5024022;28;20099;-68
2023/12/30 07:28:59;;;;;;;77.38;73.97;;;;;;;10.10;67.47;101148.91;5013440;28;20089;-69
2023/12/30 07:31:25;;;;;;;76.65;73.25;;;;;;;10.09;67.59;101147.25;5018456;28;20037;-68
2023/12/30 07:33:50;;;;;;;75.53;72.07;;;;;;;10.07;67.50;101152.88;5030580;28;20512;-69
2023/12/30 07:36:15;;;;;;;77.13;73.07;;;;;;;10.08;67.61;101157.25;5020208;28;20045;-69
2023/12/30 07:38:41;;;;;;;75.10;71.75;;;;;;;10.08;67.50;101156.41;5024320;28;20045;-71
2023/12/30 07:41:06;;;;;;;76.88;72.97;;;;;;;10.06;67.60;101148.53;5042533;28;20095;-69
2023/12/30 07:43:32;;;;;;;73.95;70.57;;;;;;;10.06;67.54;101150.44;5030715;28;20065;-70
2023/12/30 07:45:57;;;;;;;74.40;71.00;;;;;;;10.05;67.36;101156.84;5013612;28;20045;-71
2023/12/30 07:48:23;;;;;;;71.20;68.03;;;;;;;10.04;67.68;101160.63;5023633;28;20559;-69
2023/12/30 07:50:48;;;;;;;75.78;72.35;;;;;;;10.03;67.57;101162.50;5019287;28;20034;-68
2023/12/30 07:53:14;;;;;;;79.35;75.35;;;;;;;10.03;67.41;101172.44;5030439;28;20029;-68
2023/12/30 07:55:39;;;;;;;73.32;70.00;;;;;;;10.01;67.67;101164.59;5023456;28;20043;-69
2023/12/30 07:58:04;;;;;;;74.90;71.40;;;;;;;10.01;67.62;101171.88;5025367;28;20042;-69
2023/12/30 08:00:30;;;;;;;75.35;71.85;;;;;;;10.01;67.37;101169.19;5027405;28;20088;-69
2023/12/30 08:02:55;;;;;;;73.13;69.82;;;;;;;9.99;67.49;101165.88;5014488;28;20112;-70
2023/12/30 08:05:21;;;;;;;75.53;71.88;;;;;;;9.99;67.53;101176.69;5012893;28;20048;-69
2023/12/30 08:07:46;;;;;;;71.45;68.07;;;;;;;9.98;67.58;101178.56;5015476;28;20394;-69
2023/12/30 08:10:11;;;;;;;73.20;69.43;;;;;;;9.96;67.58;101173.38;5014877;28;20054;-69
2023/12/30 08:12:37;;;;;;;73.53;70.22;;;;;;;9.95;67.63;101177.13;5049301;28;20087;-70
2023/12/30 08:15:04;;;;;;;71.70;68.50;;;;;;;9.93;67.55;101175.72;5014176;28;20521;-68
2023/12/30 08:17:30;;;;;;;73.22;69.93;;;;;;;9.94;67.52;101182.75;5032877;28;20424;-68
2023/12/30 08:19:56;;;;;;;71.80;68.57;;;;;;;9.93;67.71;101187.34;5034809;28;20444;-68
2023/12/30 08:22:23;;;;;;;77.65;74.05;;;;;;;9.93;67.56;101178.41;5032739;28;20472;-68
2023/12/30 08:24:50;;;;;;;72.10;68.88;;;;;;;9.93;67.56;101183.81;5027917;28;20052;-68
2023/12/30 08:27:16;;;;;;;73.05;69.65;;;;;;;9.92;67.46;101177.56;5026788;28;20140;-69
2023/12/30 08:29:41;;;;;;;71.88;68.47;;;;;;;9.92;67.70;101187.53;5020522;28;20460;-69
2023/12/30 08:32:07;;;;;;;69.82;66.60;;;;;;;9.90;67.53;101185.09;5035173;28;20096;-72
2023/12/30 08:34:33;;;;;;;72.60;68.85;;;;;;;9.90;67.58;101184.25;5031032;28;20104;-69
2023/12/30 08:37:00;;;;;;;70.78;67.60;;;;;;;9.89;67.63;101186.13;5030913;28;20041;-70
2023/12/30 08:39:25;;;;;;;70.65;67.30;;;;;;;9.88;67.46;101184.50;5029265;28;20045;-70
2023/12/30 08:41:52;;;;;;;75.53;72.13;;;;;;;9.88;67.59;101172.88;5030506;28;20545;-70
2023/12/30 08:44:17;;;;;;;74.22;70.82;;;;;;;9.86;67.74;101178.50;5023915;28;20038;-69
2023/12/30 08:46:43;;;;;;;73.10;69.80;;;;;;;9.85;67.67;101187.66;5011964;28;20581;-69
2023/12/30 08:49:08;;;;;;;71.10;67.95;;;;;;;9.85;67.73;101190.34;5012089;28;20175;-69
2023/12/30 08:51:33;;;;;;;74.03;70.10;;;;;;;9.84;67.59;101195.97;5010166;28;20073;-68
2023/12/30 08:53:59;;;;;;;75.80;72.30;;;;;;;9.84;67.65;101188.69;5029409;28;20038;-68
2023/12/30 08:56:24;;;;;;;73.95;70.60;;;;;;;9.84;67.72;101195.97;5011539;28;20041;-68
2023/12/30 08:58:50;;;;;;;70.65;67.45;;;;;;;9.83;67.64;101205.13;5035773;28;20130;-68
2023/12/30 09:01:15;;;;;;;73.00;69.45;;;;;;;9.83;67.80;101197.84;5011765;28;20531;-68
2023/12/30 09:03:40;;;;;;;72.65;69.18;;;;;;;9.83;67.79;101203.22;5028759;28;20037;-70
2023/12/30 09:06:06;;;;;;;71.03;67.82;;;;;;;9.82;67.59;101212.38;5015511;28;20045;-69
2023/12/30 09:08:31;;;;;;;70.55;67.35;;;;;;;9.82;67.81;101203.44;5015323;28;20058;-69
2023/12/30 09:10:58;;;;;;;66.43;63.28;;;;;;;9.82;67.72;101203.44;5023062;28;20040;-69
2023/12/30 09:13:24;;;;;;;73.10;69.70;;;;;;;9.81;67.74;101202.63;5029211;28;20398;-68
2023/12/30 09:15:50;;;;;;;69.32;66.00;;;;;;;9.81;67.59;101218.81;5022422;28;20040;-68
2023/12/30 09:18:16;;;;;;;71.40;68.10;;;;;;;9.81;67.83;101220.69;5027000;28;20057;-69
2023/12/30 09:20:42;;;;;;;70.07;66.78;;;;;;;9.81;67.90;101224.22;5023634;28;20492;-69
2023/12/30 09:23:07;;;;;;;69.45;65.78;;;;;;;9.81;67.81;101223.41;5025254;28;20541;-70
2023/12/30 09:25:32;;;;;;;69.93;66.78;;;;;;;9.79;67.76;101231.72;5020715;28;20144;-68
2023/12/30 09:27:58;;;;;;;71.15;67.95;;;;;;;9.79;67.80;101231.72;5015277;28;20378;-68
2023/12/30 09:30:23;;;;;;;71.13;67.82;;;;;;;9.78;67.74;101219.28;5026028;28;20472;-69
2023/12/30 09:32:49;;;;;;;70.35;66.18;;;;;;;9.81;67.73;101224.22;5020835;28;20029;-69
2023/12/30 09:35:15;;;;;;;76.00;72.20;;;;;;;9.81;67.83;101226.91;5025386;28;20386;-72
2023/12/30 09:37:40;;;;;;;72.20;68.90;;;;;;;9.81;67.87;101229.63;5027443;28;20044;-69
2023/12/30 09:40:06;;;;;;;71.88;68.57;;;;;;;9.82;67.67;101228.56;5031067;28;20558;-70
2023/12/30 09:42:32;;;;;;;76.13;72.43;;;;;;;9.83;67.83;101232.91;5029865;28;20045;-69
2023/12/30 09:44:59;;;;;;;71.38;68.18;;;;;;;9.83;67.70;101234.78;5029637;28;20056;-68
2023/12/30 09:47:27;;;;;;;72.03;68.45;;;;;;;9.83;67.76;101232.91;5032784;28;20056;-69
2023/12/30 09:49:53;;;;;;;75.60;72.10;;;;;;;9.85;67.88;101227.28;5031247;28;20045;-69
2023/12/30 09:52:18;;;;;;;70.43;67.18;;;;;;;9.83;67.74;101235.63;5028663;28;20046;-69
2023/12/30 09:54:43;;;;;;;72.13;68.63;;;;;;;9.84;67.79;101237.25;5025435;28;20061;-69
2023/12/30 09:57:09;;;;;;;79.28;75.03;;;;;;;9.85;67.93;101232.66;5029766;28;20034;-71
2023/12/30 09:59:37;;;;;;;75.00;70.90;;;;;;;9.86;67.97;101228.94;5032805;28;20033;-68
2023/12/30 10:02:06;;;;;;;75.13;71.43;;;;;;;9.87;67.63;101219.78;5029984;28;20029;-68
2023/12/30 10:04:31;;;;;;;74.40;70.53;;;;;;;9.89;67.54;101220.38;5025353;28;20037;-68
2023/12/30 10:06:57;;;;;;;73.88;70.07;;;;;;;9.89;67.45;101229.31;5028286;28;20382;-70
2023/12/30 10:09:22;;;;;;;72.25;68.88;;;;;;;9.88;67.62;101232.25;5029759;28;20516;-70
2023/12/30 10:11:49;;;;;;;73.30;69.72;;;;;;;9.89;67.60;101231.19;5029046;28;20037;-68
2023/12/30 10:14:14;;;;;;;69.30;66.05;;;;;;;9.90;67.68;101224.72;5042531;28;20038;-69
2023/12/30 10:16:40;;;;;;;73.80;70.30;;;;;;;9.90;67.48;101235.50;5026002;28;20119;-71
2023/12/30 10:19:16;;;;;;;75.20;71.70;;;;;;;9.89;67.87;101234.69;5029241;28;20041;-69
2023/12/30 10:21:42;;;;;;;72.97;69.63;;;;;;;9.89;67.75;101244.69;5025308;28;20041;-69
2023/12/30 10:24:07;;;;;;;76.60;72.15;;;;;;;9.90;67.96;101238.22;5025372;28;20139;-68
2023/12/30 10:26:36;;;;;;;72.07;68.53;;;;;;;9.90;67.66;101246.31;5029464;28;20135;-68
2023/12/30 10:29:02;;;;;;;70.38;67.10;;;;;;;9.90;67.76;101238.22;5028718;28;20041;-71
2023/12/30 10:31:28;;;;;;;80.07;75.97;;;;;;;9.91;67.73;101239.88;5022860;28;20038;-71
2023/12/30 10:33:54;;;;;;;78.35;74.65;;;;;;;9.92;67.69;101246.91;5026985;28;20393;-69
2023/12/30 10:36:19;;;;;;;75.18;71.68;;;;;;;9.93;67.98;101240.47;5026760;28;20037;-69
2023/12/30 10:38:46;;;;;;;70.68;67.47;;;;;;;9.93;67.77;101232.38;5028179;28;20428;-69
2023/12/30 10:41:12;;;;;;;79.57;75.47;;;;;;;9.93;67.73;101241.31;5027596;28;20041;-69
2023/12/30 10:43:38;;;;;;;76.15;71.93;;;;;;;9.94;67.73;101240.25;5027299;28;20061;-70
2023/12/30 10:46:10;;;;;;;75.60;70.85;;;;;;;9.95;67.91;101230.25;5026064;28;20050;-69
2023/12/30 10:48:44;;;;;;;72.57;68.50;;;;;;;9.95;68.04;101227.56;5028820;28;20038;-69
2023/12/30 10:51:11;;;;;;;69.25;65.65;;;;;;;9.96;67.92;101226.53;5024708;28;20026;-68
2023/12/30 10:53:39;;;;;;;74.18;70.70;;;;;;;9.97;68.10;101226.28;5028596;28;20067;-69
2023/12/30 10:56:07;;;;;;;76.35;72.38;;;;;;;10.00;68.03;101229.59;5029529;28;20033;-69
2023/12/30 10:58:36;;;;;;;74.90;70.05;;;;;;;10.00;68.11;101229.59;5027917;28;20624;-69
2023/12/30 11:01:03;;;;;;;76.00;71.85;;;;;;;10.00;68.14;101216.91;5031352;28;20908;-69
2023/12/30 11:03:33;;;;;;;75.28;70.43;;;;;;;10.01;67.99;101215.88;5031648;28;20037;-69
2023/12/30 11:06:18;;;;;;;71.05;67.85;;;;;;;10.03;68.09;101223.72;5021158;28;20038;-68